sensor_id;sensor_type;location;lat;lon;timestamp;temperature;humidity
73955;DHT22;62306;52.516;13.290;2024-02-26T00:01:03;5.90;99.90
73955;DHT22;62306;52.516;13.290;2024-02-26T00:06:21;5.90;99.90
73955;DHT22;62306;52.516;13.290;2024-02-26T00:09:06;6.00;99.90
73955;DHT22;62306;52.516;13.290;2024-02-26T00:11:37;6.00;99.90
73955;DHT22;62306;52.516;13.290;2024-02-26T00:14:05;5.90;99.90
73955;DHT22;62306;52.516;13.290;2024-02-26T00:16:35;5.80;99.90
73955;DHT22;62306;52.516;13.290;2024-02-26T00:19:03;5.70;99.90
73955;DHT22;62306;52.516;13.290;2024-02-26T00:21:32;5.70;99.90
73955;DHT22;62306;52.516;13.290;2024-02-26T00:24:00;5.80;99.90
73955;DHT22;62306;52.516;13.290;2024-02-26T00:26:42;5.80;99.90
73955;DHT22;62306;52.516;13.290;2024-02-26T00:29:10;5.80;99.90
73955;DHT22;62306;52.516;13.290;2024-02-26T00:31:41;5.70;99.90
73955;DHT22;62306;52.516;13.290;2024-02-26T00:34:11;5.80;99.90
73955;DHT22;62306;52.516;13.290;2024-02-26T00:36:39;5.40;99.90
73955;DHT22;62306;52.516;13.290;2024-02-26T00:39:07;5.50;99.90
73955;DHT22;62306;52.516;13.290;2024-02-26T00:41:38;5.50;99.90
73955;DHT22;62306;52.516;13.290;2024-02-26T00:44:06;5.50;99.90
73955;DHT22;62306;52.516;13.290;2024-02-26T00:46:35;5.50;99.90
73955;DHT22;62306;52.516;13.290;2024-02-26T00:49:04;5.50;99.90
73955;DHT22;62306;52.516;13.290;2024-02-26T00:51:31;5.50;99.90
73955;DHT22;62306;52.516;13.290;2024-02-26T00:53:59;5.50;99.90
73955;DHT22;62306;52.516;13.290;2024-02-26T00:56:26;5.30;99.90
73955;DHT22;62306;52.516;13.290;2024-02-26T00:58:54;5.30;99.90
73955;DHT22;62306;52.516;13.290;2024-02-26T01:01:22;5.30;99.90
73955;DHT22;62306;52.516;13.290;2024-02-26T01:03:49;5.20;99.90
73955;DHT22;62306;52.516;13.290;2024-02-26T01:06:19;5.20;99.90
73955;DHT22;62306;52.516;13.290;2024-02-26T01:08:48;5.20;99.90
73955;DHT22;62306;52.516;13.290;2024-02-26T01:11:16;5.20;99.90
73955;DHT22;62306;52.516;13.290;2024-02-26T01:13:46;5.20;99.90
73955;DHT22;62306;52.516;13.290;2024-02-26T01:16:13;5.20;99.90
73955;DHT22;62306;52.516;13.290;2024-02-26T01:18:41;5.20;99.90
73955;DHT22;62306;52.516;13.290;2024-02-26T01:21:09;5.20;99.90
73955;DHT22;62306;52.516;13.290;2024-02-26T01:23:38;5.10;99.90
73955;DHT22;62306;52.516;13.290;2024-02-26T01:26:11;5.10;99.90
73955;DHT22;62306;52.516;13.290;2024-02-26T01:28:39;5.10;99.90
73955;DHT22;62306;52.516;13.290;2024-02-26T01:31:08;5.10;99.90
73955;DHT22;62306;52.516;13.290;2024-02-26T01:33:37;5.10;99.90
73955;DHT22;62306;52.516;13.290;2024-02-26T01:36:05;5.00;99.90
73955;DHT22;62306;52.516;13.290;2024-02-26T01:38:33;5.10;99.90
73955;DHT22;62306;52.516;13.290;2024-02-26T01:41:02;5.10;99.90
73955;DHT22;62306;52.516;13.290;2024-02-26T01:43:33;5.10;99.90
73955;DHT22;62306;52.516;13.290;2024-02-26T01:46:04;5.20;99.90
73955;DHT22;62306;52.516;13.290;2024-02-26T01:48:32;5.10;99.90
73955;DHT22;62306;52.516;13.290;2024-02-26T01:51:00;5.10;99.90
73955;DHT22;62306;52.516;13.290;2024-02-26T01:53:28;5.10;99.90
73955;DHT22;62306;52.516;13.290;2024-02-26T01:56:03;5.10;99.90
73955;DHT22;62306;52.516;13.290;2024-02-26T01:58:31;5.00;99.90
73955;DHT22;62306;52.516;13.290;2024-02-26T02:00:59;5.00;99.90
73955;DHT22;62306;52.516;13.290;2024-02-26T02:03:29;4.80;99.90
73955;DHT22;62306;52.516;13.290;2024-02-26T02:06:00;4.80;99.90
73955;DHT22;62306;52.516;13.290;2024-02-26T02:08:29;4.70;99.90
73955;DHT22;62306;52.516;13.290;2024-02-26T02:10:57;4.60;99.90
73955;DHT22;62306;52.516;13.290;2024-02-26T02:13:27;4.60;99.90
73955;DHT22;62306;52.516;13.290;2024-02-26T02:15:55;4.60;99.90
73955;DHT22;62306;52.516;13.290;2024-02-26T02:18:23;4.70;99.90
73955;DHT22;62306;52.516;13.290;2024-02-26T02:20:53;4.70;99.90
73955;DHT22;62306;52.516;13.290;2024-02-26T02:23:22;4.70;99.90
73955;DHT22;62306;52.516;13.290;2024-02-26T02:25:50;4.70;99.90
73955;DHT22;62306;52.516;13.290;2024-02-26T02:28:18;4.70;99.90
73955;DHT22;62306;52.516;13.290;2024-02-26T02:30:46;4.70;99.90
73955;DHT22;62306;52.516;13.290;2024-02-26T02:33:13;4.60;99.90
73955;DHT22;62306;52.516;13.290;2024-02-26T02:35:42;4.60;99.90
73955;DHT22;62306;52.516;13.290;2024-02-26T02:38:11;4.60;99.90
73955;DHT22;62306;52.516;13.290;2024-02-26T02:40:38;4.60;99.90
73955;DHT22;62306;52.516;13.290;2024-02-26T02:43:06;4.60;99.90
73955;DHT22;62306;52.516;13.290;2024-02-26T02:45:34;4.50;99.90
73955;DHT22;62306;52.516;13.290;2024-02-26T02:48:01;4.50;99.90
73955;DHT22;62306;52.516;13.290;2024-02-26T02:50:29;5.30;99.90
73955;DHT22;62306;52.516;13.290;2024-02-26T02:52:56;4.40;99.90
73955;DHT22;62306;52.516;13.290;2024-02-26T02:55:25;4.40;99.90
73955;DHT22;62306;52.516;13.290;2024-02-26T02:57:54;4.40;99.90
73955;DHT22;62306;52.516;13.290;2024-02-26T03:00:22;4.40;99.90
73955;DHT22;62306;52.516;13.290;2024-02-26T03:02:49;4.40;99.90
73955;DHT22;62306;52.516;13.290;2024-02-26T03:05:17;4.40;99.90
73955;DHT22;62306;52.516;13.290;2024-02-26T03:07:45;4.40;99.90
73955;DHT22;62306;52.516;13.290;2024-02-26T03:10:12;4.40;99.90
73955;DHT22;62306;52.516;13.290;2024-02-26T03:12:42;4.40;99.90
73955;DHT22;62306;52.516;13.290;2024-02-26T03:15:10;4.40;99.90
73955;DHT22;62306;52.516;13.290;2024-02-26T03:17:38;4.40;99.90
73955;DHT22;62306;52.516;13.290;2024-02-26T03:20:07;4.40;99.90
73955;DHT22;62306;52.516;13.290;2024-02-26T03:22:35;4.40;99.90
73955;DHT22;62306;52.516;13.290;2024-02-26T03:25:03;4.40;99.90
73955;DHT22;62306;52.516;13.290;2024-02-26T03:27:31;4.50;99.90
73955;DHT22;62306;52.516;13.290;2024-02-26T03:29:59;4.50;99.90
73955;DHT22;62306;52.516;13.290;2024-02-26T03:32:26;4.60;99.90
73955;DHT22;62306;52.516;13.290;2024-02-26T03:34:53;4.60;99.90
73955;DHT22;62306;52.516;13.290;2024-02-26T03:37:21;4.60;99.90
73955;DHT22;62306;52.516;13.290;2024-02-26T03:39:48;4.60;99.90
73955;DHT22;62306;52.516;13.290;2024-02-26T03:42:15;4.50;99.90
73955;DHT22;62306;52.516;13.290;2024-02-26T03:44:42;4.60;99.90
73955;DHT22;62306;52.516;13.290;2024-02-26T03:47:10;4.60;99.90
73955;DHT22;62306;52.516;13.290;2024-02-26T03:49:37;4.50;99.90
73955;DHT22;62306;52.516;13.290;2024-02-26T03:52:04;4.50;99.90
73955;DHT22;62306;52.516;13.290;2024-02-26T03:54:31;4.50;99.90
73955;DHT22;62306;52.516;13.290;2024-02-26T03:56:58;4.50;99.90
73955;DHT22;62306;52.516;13.290;2024-02-26T03:59:25;4.50;99.90
73955;DHT22;62306;52.516;13.290;2024-02-26T04:01:52;4.60;99.90
73955;DHT22;62306;52.516;13.290;2024-02-26T04:04:20;4.60;99.90
73955;DHT22;62306;52.516;13.290;2024-02-26T04:06:47;4.60;99.90
73955;DHT22;62306;52.516;13.290;2024-02-26T04:09:14;4.60;99.90
73955;DHT22;62306;52.516;13.290;2024-02-26T04:11:41;4.50;99.90
73955;DHT22;62306;52.516;13.290;2024-02-26T04:14:09;4.50;99.90
73955;DHT22;62306;52.516;13.290;2024-02-26T04:16:37;4.50;99.90
73955;DHT22;62306;52.516;13.290;2024-02-26T04:19:04;4.50;99.90
73955;DHT22;62306;52.516;13.290;2024-02-26T04:21:33;4.50;99.90
73955;DHT22;62306;52.516;13.290;2024-02-26T04:24:00;4.50;99.90
73955;DHT22;62306;52.516;13.290;2024-02-26T04:26:27;4.40;99.90
73955;DHT22;62306;52.516;13.290;2024-02-26T04:28:54;4.40;99.90
73955;DHT22;62306;52.516;13.290;2024-02-26T04:31:21;4.50;99.90
73955;DHT22;62306;52.516;13.290;2024-02-26T04:33:48;4.40;99.90
73955;DHT22;62306;52.516;13.290;2024-02-26T04:36:15;4.40;99.90
73955;DHT22;62306;52.516;13.290;2024-02-26T04:38:44;4.90;99.90
73955;DHT22;62306;52.516;13.290;2024-02-26T04:41:11;4.30;99.90
73955;DHT22;62306;52.516;13.290;2024-02-26T04:43:38;4.40;99.90
73955;DHT22;62306;52.516;13.290;2024-02-26T04:46:07;4.40;99.90
73955;DHT22;62306;52.516;13.290;2024-02-26T04:48:34;4.50;99.90
73955;DHT22;62306;52.516;13.290;2024-02-26T04:51:01;4.60;99.90
73955;DHT22;62306;52.516;13.290;2024-02-26T04:53:28;4.60;99.90
73955;DHT22;62306;52.516;13.290;2024-02-26T04:55:56;4.60;99.90
73955;DHT22;62306;52.516;13.290;2024-02-26T04:58:23;4.60;99.90
73955;DHT22;62306;52.516;13.290;2024-02-26T05:00:50;4.40;99.90
73955;DHT22;62306;52.516;13.290;2024-02-26T05:03:17;4.30;99.90
73955;DHT22;62306;52.516;13.290;2024-02-26T05:05:44;4.30;99.90
73955;DHT22;62306;52.516;13.290;2024-02-26T05:08:11;4.30;99.90
73955;DHT22;62306;52.516;13.290;2024-02-26T05:10:38;4.30;99.90
73955;DHT22;62306;52.516;13.290;2024-02-26T05:13:08;4.30;99.90
73955;DHT22;62306;52.516;13.290;2024-02-26T05:15:35;4.20;99.90
73955;DHT22;62306;52.516;13.290;2024-02-26T05:18:02;4.20;99.90
73955;DHT22;62306;52.516;13.290;2024-02-26T05:20:29;4.20;99.90
73955;DHT22;62306;52.516;13.290;2024-02-26T05:22:56;4.20;99.90
73955;DHT22;62306;52.516;13.290;2024-02-26T05:25:25;4.10;99.90
73955;DHT22;62306;52.516;13.290;2024-02-26T05:27:52;4.10;99.90
73955;DHT22;62306;52.516;13.290;2024-02-26T05:30:20;4.10;99.90
73955;DHT22;62306;52.516;13.290;2024-02-26T05:32:47;4.10;99.90
73955;DHT22;62306;52.516;13.290;2024-02-26T05:35:14;4.00;99.90
73955;DHT22;62306;52.516;13.290;2024-02-26T05:37:41;3.90;99.90
73955;DHT22;62306;52.516;13.290;2024-02-26T05:40:09;3.90;99.90
73955;DHT22;62306;52.516;13.290;2024-02-26T05:42:36;3.90;99.90
73955;DHT22;62306;52.516;13.290;2024-02-26T05:45:03;3.90;99.90
73955;DHT22;62306;52.516;13.290;2024-02-26T05:47:33;3.80;99.90
73955;DHT22;62306;52.516;13.290;2024-02-26T05:50:00;3.90;99.90
73955;DHT22;62306;52.516;13.290;2024-02-26T05:52:27;3.80;99.90
73955;DHT22;62306;52.516;13.290;2024-02-26T05:54:55;3.80;99.90
73955;DHT22;62306;52.516;13.290;2024-02-26T05:57:22;3.80;99.90
73955;DHT22;62306;52.516;13.290;2024-02-26T05:59:48;3.80;99.90
73955;DHT22;62306;52.516;13.290;2024-02-26T06:02:15;3.80;99.90
73955;DHT22;62306;52.516;13.290;2024-02-26T06:04:44;3.80;99.90
73955;DHT22;62306;52.516;13.290;2024-02-26T06:07:12;3.80;99.90
73955;DHT22;62306;52.516;13.290;2024-02-26T06:09:39;3.80;99.90
73955;DHT22;62306;52.516;13.290;2024-02-26T06:12:06;3.90;99.90
73955;DHT22;62306;52.516;13.290;2024-02-26T06:14:33;3.80;99.90
73955;DHT22;62306;52.516;13.290;2024-02-26T06:17:00;3.90;99.90
73955;DHT22;62306;52.516;13.290;2024-02-26T06:19:27;3.90;99.90
73955;DHT22;62306;52.516;13.290;2024-02-26T06:21:55;3.90;99.90
73955;DHT22;62306;52.516;13.290;2024-02-26T06:24:22;3.90;99.90
73955;DHT22;62306;52.516;13.290;2024-02-26T06:26:49;3.90;99.90
73955;DHT22;62306;52.516;13.290;2024-02-26T06:29:16;4.00;99.90
73955;DHT22;62306;52.516;13.290;2024-02-26T06:31:43;4.10;99.90
73955;DHT22;62306;52.516;13.290;2024-02-26T06:34:10;4.20;99.90
73955;DHT22;62306;52.516;13.290;2024-02-26T06:36:37;4.30;99.90
73955;DHT22;62306;52.516;13.290;2024-02-26T06:39:05;4.30;99.90
73955;DHT22;62306;52.516;13.290;2024-02-26T06:41:33;4.40;99.90
73955;DHT22;62306;52.516;13.290;2024-02-26T06:44:02;4.50;99.90
73955;DHT22;62306;52.516;13.290;2024-02-26T06:46:29;4.60;99.90
73955;DHT22;62306;52.516;13.290;2024-02-26T06:48:56;4.70;99.90
73955;DHT22;62306;52.516;13.290;2024-02-26T06:51:23;4.70;99.90
73955;DHT22;62306;52.516;13.290;2024-02-26T06:53:50;4.90;99.90
73955;DHT22;62306;52.516;13.290;2024-02-26T06:56:18;4.90;99.90
73955;DHT22;62306;52.516;13.290;2024-02-26T06:58:45;5.00;99.90
73955;DHT22;62306;52.516;13.290;2024-02-26T07:01:12;5.00;99.90
73955;DHT22;62306;52.516;13.290;2024-02-26T07:03:40;5.10;99.90
73955;DHT22;62306;52.516;13.290;2024-02-26T07:06:08;5.10;99.90
73955;DHT22;62306;52.516;13.290;2024-02-26T07:08:35;5.10;99.90
73955;DHT22;62306;52.516;13.290;2024-02-26T07:11:02;5.20;99.90
73955;DHT22;62306;52.516;13.290;2024-02-26T07:13:30;5.30;99.90
73955;DHT22;62306;52.516;13.290;2024-02-26T07:15:57;5.40;99.90
73955;DHT22;62306;52.516;13.290;2024-02-26T07:18:24;5.40;99.90
73955;DHT22;62306;52.516;13.290;2024-02-26T07:20:51;5.60;99.90
73955;DHT22;62306;52.516;13.290;2024-02-26T07:23:18;5.70;99.90
73955;DHT22;62306;52.516;13.290;2024-02-26T07:25:44;5.80;99.90
73955;DHT22;62306;52.516;13.290;2024-02-26T07:28:14;6.00;99.90
73955;DHT22;62306;52.516;13.290;2024-02-26T07:30:42;6.10;99.90
73955;DHT22;62306;52.516;13.290;2024-02-26T07:33:09;6.30;99.90
73955;DHT22;62306;52.516;13.290;2024-02-26T07:35:36;6.40;99.90
73955;DHT22;62306;52.516;13.290;2024-02-26T07:38:04;6.50;99.90
73955;DHT22;62306;52.516;13.290;2024-02-26T07:40:31;6.60;99.90
73955;DHT22;62306;52.516;13.290;2024-02-26T07:42:58;6.60;99.90
73955;DHT22;62306;52.516;13.290;2024-02-26T07:45:25;6.70;99.90
73955;DHT22;62306;52.516;13.290;2024-02-26T07:47:53;6.80;99.90
73955;DHT22;62306;52.516;13.290;2024-02-26T07:50:20;6.90;99.90
73955;DHT22;62306;52.516;13.290;2024-02-26T07:52:47;7.00;99.90
73955;DHT22;62306;52.516;13.290;2024-02-26T07:55:16;7.10;99.90
73955;DHT22;62306;52.516;13.290;2024-02-26T07:57:44;7.30;99.90
73955;DHT22;62306;52.516;13.290;2024-02-26T08:00:12;7.30;99.90
73955;DHT22;62306;52.516;13.290;2024-02-26T08:02:42;7.30;99.90
73955;DHT22;62306;52.516;13.290;2024-02-26T08:05:11;7.40;99.90
73955;DHT22;62306;52.516;13.290;2024-02-26T08:07:38;7.40;99.90
73955;DHT22;62306;52.516;13.290;2024-02-26T08:10:05;7.40;99.90
73955;DHT22;62306;52.516;13.290;2024-02-26T08:12:32;7.40;99.90
73955;DHT22;62306;52.516;13.290;2024-02-26T08:14:59;7.40;99.90
73955;DHT22;62306;52.516;13.290;2024-02-26T08:17:26;7.50;99.90
73955;DHT22;62306;52.516;13.290;2024-02-26T08:19:53;7.50;99.90
73955;DHT22;62306;52.516;13.290;2024-02-26T08:22:22;7.60;99.90
73955;DHT22;62306;52.516;13.290;2024-02-26T08:24:48;7.70;99.90
73955;DHT22;62306;52.516;13.290;2024-02-26T08:27:15;7.60;99.90
73955;DHT22;62306;52.516;13.290;2024-02-26T08:29:43;7.60;99.90
73955;DHT22;62306;52.516;13.290;2024-02-26T08:32:10;7.70;99.90
73955;DHT22;62306;52.516;13.290;2024-02-26T08:34:36;7.90;99.90
73955;DHT22;62306;52.516;13.290;2024-02-26T08:37:04;7.90;99.90
73955;DHT22;62306;52.516;13.290;2024-02-26T08:39:32;8.10;99.90
73955;DHT22;62306;52.516;13.290;2024-02-26T08:41:59;8.30;99.90
73955;DHT22;62306;52.516;13.290;2024-02-26T08:44:26;8.30;99.90
73955;DHT22;62306;52.516;13.290;2024-02-26T08:46:53;8.50;99.90
73955;DHT22;62306;52.516;13.290;2024-02-26T08:49:20;8.40;99.90
73955;DHT22;62306;52.516;13.290;2024-02-26T08:51:48;8.50;99.90
73955;DHT22;62306;52.516;13.290;2024-02-26T08:54:15;8.50;99.90
73955;DHT22;62306;52.516;13.290;2024-02-26T08:56:43;8.70;99.90
73955;DHT22;62306;52.516;13.290;2024-02-26T08:59:10;8.90;99.90
73955;DHT22;62306;52.516;13.290;2024-02-26T09:01:37;9.00;99.90
73955;DHT22;62306;52.516;13.290;2024-02-26T09:04:04;9.10;99.90
73955;DHT22;62306;52.516;13.290;2024-02-26T09:06:31;9.20;99.90
73955;DHT22;62306;52.516;13.290;2024-02-26T09:08:58;9.30;99.90
73955;DHT22;62306;52.516;13.290;2024-02-26T09:11:25;9.40;99.90
73955;DHT22;62306;52.516;13.290;2024-02-26T09:13:53;9.60;99.90
73955;DHT22;62306;52.516;13.290;2024-02-26T09:16:20;9.60;99.90
73955;DHT22;62306;52.516;13.290;2024-02-26T09:18:47;9.60;99.90
73955;DHT22;62306;52.516;13.290;2024-02-26T09:21:14;9.50;99.90
73955;DHT22;62306;52.516;13.290;2024-02-26T09:23:41;9.30;99.90
73955;DHT22;62306;52.516;13.290;2024-02-26T09:26:08;9.40;99.90
73955;DHT22;62306;52.516;13.290;2024-02-26T09:28:35;9.40;99.90
73955;DHT22;62306;52.516;13.290;2024-02-26T09:31:04;9.60;99.90
73955;DHT22;62306;52.516;13.290;2024-02-26T09:33:32;9.60;99.90
73955;DHT22;62306;52.516;13.290;2024-02-26T09:35:59;9.70;99.90
73955;DHT22;62306;52.516;13.290;2024-02-26T09:38:26;9.80;99.90
73955;DHT22;62306;52.516;13.290;2024-02-26T09:40:53;9.80;99.90
73955;DHT22;62306;52.516;13.290;2024-02-26T09:43:22;9.80;99.90
73955;DHT22;62306;52.516;13.290;2024-02-26T09:45:50;9.80;99.90
73955;DHT22;62306;52.516;13.290;2024-02-26T09:48:18;9.90;99.90
73955;DHT22;62306;52.516;13.290;2024-02-26T09:50:46;9.90;99.90
73955;DHT22;62306;52.516;13.290;2024-02-26T09:53:13;10.00;99.90
73955;DHT22;62306;52.516;13.290;2024-02-26T09:55:41;10.00;99.90
73955;DHT22;62306;52.516;13.290;2024-02-26T09:58:08;9.30;99.90
73955;DHT22;62306;52.516;13.290;2024-02-26T10:00:40;10.20;99.90
73955;DHT22;62306;52.516;13.290;2024-02-26T10:03:11;10.30;99.90
73955;DHT22;62306;52.516;13.290;2024-02-26T10:05:43;10.30;99.90
73955;DHT22;62306;52.516;13.290;2024-02-26T10:08:12;10.30;99.90
73955;DHT22;62306;52.516;13.290;2024-02-26T10:10:41;10.40;99.90
73955;DHT22;62306;52.516;13.290;2024-02-26T10:13:08;10.30;99.90
73955;DHT22;62306;52.516;13.290;2024-02-26T10:15:37;10.30;99.90
73955;DHT22;62306;52.516;13.290;2024-02-26T10:18:05;10.10;99.90
73955;DHT22;62306;52.516;13.290;2024-02-26T10:20:32;10.10;99.90
73955;DHT22;62306;52.516;13.290;2024-02-26T10:23:02;10.30;99.90
73955;DHT22;62306;52.516;13.290;2024-02-26T10:25:30;10.50;99.90
73955;DHT22;62306;52.516;13.290;2024-02-26T10:28:00;10.70;99.90
73955;DHT22;62306;52.516;13.290;2024-02-26T10:30:29;10.80;99.90
73955;DHT22;62306;52.516;13.290;2024-02-26T10:32:56;10.50;99.90
73955;DHT22;62306;52.516;13.290;2024-02-26T10:35:23;10.60;99.90
73955;DHT22;62306;52.516;13.290;2024-02-26T10:37:51;10.80;99.90
73955;DHT22;62306;52.516;13.290;2024-02-26T10:40:21;10.90;99.90
73955;DHT22;62306;52.516;13.290;2024-02-26T10:42:48;10.90;99.90
73955;DHT22;62306;52.516;13.290;2024-02-26T10:45:15;10.90;99.90
73955;DHT22;62306;52.516;13.290;2024-02-26T10:47:42;11.00;99.90
73955;DHT22;62306;52.516;13.290;2024-02-26T10:50:09;11.00;99.90
73955;DHT22;62306;52.516;13.290;2024-02-26T10:52:36;11.00;99.90
73955;DHT22;62306;52.516;13.290;2024-02-26T10:55:05;11.10;99.90
73955;DHT22;62306;52.516;13.290;2024-02-26T10:57:35;11.20;99.90
73955;DHT22;62306;52.516;13.290;2024-02-26T11:00:04;11.30;99.90
73955;DHT22;62306;52.516;13.290;2024-02-26T11:02:32;11.30;99.90
73955;DHT22;62306;52.516;13.290;2024-02-26T11:05:02;10.50;99.90
73955;DHT22;62306;52.516;13.290;2024-02-26T11:07:30;11.30;99.90
73955;DHT22;62306;52.516;13.290;2024-02-26T11:09:59;11.30;99.90
73955;DHT22;62306;52.516;13.290;2024-02-26T11:12:28;11.40;99.90
73955;DHT22;62306;52.516;13.290;2024-02-26T11:14:57;11.50;99.90
73955;DHT22;62306;52.516;13.290;2024-02-26T11:17:27;11.60;99.90
73955;DHT22;62306;52.516;13.290;2024-02-26T11:19:57;11.50;99.90
73955;DHT22;62306;52.516;13.290;2024-02-26T11:22:24;11.50;99.90
73955;DHT22;62306;52.516;13.290;2024-02-26T11:24:53;11.90;99.90
73955;DHT22;62306;52.516;13.290;2024-02-26T11:27:25;11.80;99.90
73955;DHT22;62306;52.516;13.290;2024-02-26T11:29:58;11.70;99.90
73955;DHT22;62306;52.516;13.290;2024-02-26T11:32:27;11.40;99.90
73955;DHT22;62306;52.516;13.290;2024-02-26T11:34:56;11.30;99.90
73955;DHT22;62306;52.516;13.290;2024-02-26T11:37:24;11.30;99.90
73955;DHT22;62306;52.516;13.290;2024-02-26T11:39:52;11.50;99.90
73955;DHT22;62306;52.516;13.290;2024-02-26T11:42:23;11.70;99.90
73955;DHT22;62306;52.516;13.290;2024-02-26T11:44:51;11.80;99.90
73955;DHT22;62306;52.516;13.290;2024-02-26T11:47:20;11.90;99.90
73955;DHT22;62306;52.516;13.290;2024-02-26T11:49:48;11.90;99.90
73955;DHT22;62306;52.516;13.290;2024-02-26T11:52:15;12.00;99.90
73955;DHT22;62306;52.516;13.290;2024-02-26T11:54:47;12.20;99.90
73955;DHT22;62306;52.516;13.290;2024-02-26T11:57:25;12.40;99.90
73955;DHT22;62306;52.516;13.290;2024-02-26T11:59:53;12.20;99.90
73955;DHT22;62306;52.516;13.290;2024-02-26T12:02:46;12.30;99.90
73955;DHT22;62306;52.516;13.290;2024-02-26T12:05:15;12.30;99.90
73955;DHT22;62306;52.516;13.290;2024-02-26T12:07:45;12.30;99.90
73955;DHT22;62306;52.516;13.290;2024-02-26T12:10:30;12.40;99.90
73955;DHT22;62306;52.516;13.290;2024-02-26T12:13:00;12.50;99.90
73955;DHT22;62306;52.516;13.290;2024-02-26T12:15:32;12.30;99.90
73955;DHT22;62306;52.516;13.290;2024-02-26T12:18:02;12.10;99.90
73955;DHT22;62306;52.516;13.290;2024-02-26T12:20:30;11.20;99.90
73955;DHT22;62306;52.516;13.290;2024-02-26T12:22:57;12.20;99.90
73955;DHT22;62306;52.516;13.290;2024-02-26T12:25:26;12.30;99.90
73955;DHT22;62306;52.516;13.290;2024-02-26T12:27:53;12.10;99.90
73955;DHT22;62306;52.516;13.290;2024-02-26T12:30:20;12.10;99.90
73955;DHT22;62306;52.516;13.290;2024-02-26T12:32:48;12.10;99.90
73955;DHT22;62306;52.516;13.290;2024-02-26T12:35:16;12.30;99.90
73955;DHT22;62306;52.516;13.290;2024-02-26T12:37:44;12.40;99.90
73955;DHT22;62306;52.516;13.290;2024-02-26T12:40:12;12.60;99.90
73955;DHT22;62306;52.516;13.290;2024-02-26T12:42:39;12.80;99.90
73955;DHT22;62306;52.516;13.290;2024-02-26T12:45:07;12.70;99.40
73955;DHT22;62306;52.516;13.290;2024-02-26T12:47:36;12.40;99.90
73955;DHT22;62306;52.516;13.290;2024-02-26T12:50:04;12.30;99.90
73955;DHT22;62306;52.516;13.290;2024-02-26T12:52:33;12.20;99.90
73955;DHT22;62306;52.516;13.290;2024-02-26T12:55:02;12.40;99.90
73955;DHT22;62306;52.516;13.290;2024-02-26T12:57:30;12.50;99.90
73955;DHT22;62306;52.516;13.290;2024-02-26T12:59:58;12.50;98.90
73955;DHT22;62306;52.516;13.290;2024-02-26T13:02:26;12.50;99.00
73955;DHT22;62306;52.516;13.290;2024-02-26T13:04:53;12.50;98.70
73955;DHT22;62306;52.516;13.290;2024-02-26T13:07:22;12.50;98.40
73955;DHT22;62306;52.516;13.290;2024-02-26T13:09:51;12.50;98.20
73955;DHT22;62306;52.516;13.290;2024-02-26T13:12:18;12.30;97.90
73955;DHT22;62306;52.516;13.290;2024-02-26T13:14:45;12.30;97.40
73955;DHT22;62306;52.516;13.290;2024-02-26T13:17:12;12.40;96.30
73955;DHT22;62306;52.516;13.290;2024-02-26T13:19:49;12.20;96.30
73955;DHT22;62306;52.516;13.290;2024-02-26T13:22:15;12.20;96.40
73955;DHT22;62306;52.516;13.290;2024-02-26T13:24:42;12.20;95.50
73955;DHT22;62306;52.516;13.290;2024-02-26T13:27:11;12.30;95.20
73955;DHT22;62306;52.516;13.290;2024-02-26T13:29:37;12.30;94.90
73955;DHT22;62306;52.516;13.290;2024-02-26T13:32:05;12.30;94.90
73955;DHT22;62306;52.516;13.290;2024-02-26T13:34:32;12.40;95.20
73955;DHT22;62306;52.516;13.290;2024-02-26T13:37:01;12.30;95.10
73955;DHT22;62306;52.516;13.290;2024-02-26T13:39:29;12.30;94.60
73955;DHT22;62306;52.516;13.290;2024-02-26T13:41:57;12.20;93.60
73955;DHT22;62306;52.516;13.290;2024-02-26T13:44:25;12.20;92.40
73955;DHT22;62306;52.516;13.290;2024-02-26T13:46:52;12.10;91.50
73955;DHT22;62306;52.516;13.290;2024-02-26T13:49:20;12.20;91.30
73955;DHT22;62306;52.516;13.290;2024-02-26T13:51:47;12.20;90.30
73955;DHT22;62306;52.516;13.290;2024-02-26T13:54:14;12.10;90.10
73955;DHT22;62306;52.516;13.290;2024-02-26T13:56:41;12.00;90.60
73955;DHT22;62306;52.516;13.290;2024-02-26T13:59:08;12.10;90.20
73955;DHT22;62306;52.516;13.290;2024-02-26T14:01:36;12.10;88.10
73955;DHT22;62306;52.516;13.290;2024-02-26T14:04:03;12.10;90.10
73955;DHT22;62306;52.516;13.290;2024-02-26T14:06:30;12.10;90.20
73955;DHT22;62306;52.516;13.290;2024-02-26T14:08:57;12.10;90.70
73955;DHT22;62306;52.516;13.290;2024-02-26T14:11:24;12.00;90.70
73955;DHT22;62306;52.516;13.290;2024-02-26T14:13:54;12.10;90.50
73955;DHT22;62306;52.516;13.290;2024-02-26T14:16:21;12.00;90.10
73955;DHT22;62306;52.516;13.290;2024-02-26T14:18:49;12.00;90.50
73955;DHT22;62306;52.516;13.290;2024-02-26T14:21:16;12.00;90.70
73955;DHT22;62306;52.516;13.290;2024-02-26T14:23:43;12.10;91.00
73955;DHT22;62306;52.516;13.290;2024-02-26T14:26:10;12.00;91.20
73955;DHT22;62306;52.516;13.290;2024-02-26T14:28:37;11.90;91.90
73955;DHT22;62306;52.516;13.290;2024-02-26T14:31:06;11.90;92.50
73955;DHT22;62306;52.516;13.290;2024-02-26T14:33:37;11.90;92.90
73955;DHT22;62306;52.516;13.290;2024-02-26T14:36:06;11.90;93.40
73955;DHT22;62306;52.516;13.290;2024-02-26T14:38:33;11.90;93.80
73955;DHT22;62306;52.516;13.290;2024-02-26T14:41:00;11.90;93.90
73955;DHT22;62306;52.516;13.290;2024-02-26T14:43:27;11.80;95.00
73955;DHT22;62306;52.516;13.290;2024-02-26T14:45:55;11.80;95.70
73955;DHT22;62306;52.516;13.290;2024-02-26T14:48:22;11.80;96.20
73955;DHT22;62306;52.516;13.290;2024-02-26T14:50:49;11.80;95.80
73955;DHT22;62306;52.516;13.290;2024-02-26T14:53:19;11.80;96.20
73955;DHT22;62306;52.516;13.290;2024-02-26T14:55:46;11.70;96.70
73955;DHT22;62306;52.516;13.290;2024-02-26T14:58:13;11.70;97.30
73955;DHT22;62306;52.516;13.290;2024-02-26T15:00:39;11.70;97.50
73955;DHT22;62306;52.516;13.290;2024-02-26T15:03:06;11.60;97.90
73955;DHT22;62306;52.516;13.290;2024-02-26T15:05:34;11.60;98.40
73955;DHT22;62306;52.516;13.290;2024-02-26T15:08:01;11.70;98.40
73955;DHT22;62306;52.516;13.290;2024-02-26T15:10:30;11.60;98.60
73955;DHT22;62306;52.516;13.290;2024-02-26T15:12:56;11.60;99.10
73955;DHT22;62306;52.516;13.290;2024-02-26T15:15:23;11.60;99.20
73955;DHT22;62306;52.516;13.290;2024-02-26T15:17:50;11.60;99.70
73955;DHT22;62306;52.516;13.290;2024-02-26T15:20:18;11.50;99.80
73955;DHT22;62306;52.516;13.290;2024-02-26T15:22:45;11.50;99.90
73955;DHT22;62306;52.516;13.290;2024-02-26T15:25:12;11.50;99.90
73955;DHT22;62306;52.516;13.290;2024-02-26T15:27:41;11.50;99.90
73955;DHT22;62306;52.516;13.290;2024-02-26T15:30:09;11.40;99.90
73955;DHT22;62306;52.516;13.290;2024-02-26T15:32:36;11.30;99.90